Time;durP1;ratioP1;P1;durP2;ratioP2;P2;SDS_P1;SDS_P2;PMS_P1;PMS_P2;Temp;Humidity;BMP_temperature;BMP_pressure;BME280_temperature;BME280_humidity;BME280_pressure;Samples;Min_cycle;Max_cycle;Signal;HPM_P1;HPM_P2
2023/02/27 00:00:13;;;;;;;;;;;0.10;99.90;;;;;;5031493;28;19925;-79
2023/02/27 00:02:40;;;;;;;;;;;-0.10;99.90;;;;;;5031304;28;19984;-80
2023/02/27 00:05:06;;;;;;;;;;;0.10;99.90;;;;;;5031686;28;20424;-80
2023/02/27 00:07:32;;;;;;;;;;;0.00;99.90;;;;;;5021904;28;19921;-80
2023/02/27 00:09:57;;;;;;;;;;;0.20;99.90;;;;;;5032469;28;19917;-81
2023/02/27 00:12:23;;;;;;;;;;;0.40;99.90;;;;;;5067599;28;20398;-79
2023/02/27 00:14:50;;;;;;;;;;;0.20;99.90;;;;;;5064463;28;19920;-79
2023/02/27 00:17:16;;;;;;;;;;;0.80;99.90;;;;;;5050188;28;19921;-80
2023/02/27 00:19:41;;;;;;;;;;;0.30;99.90;;;;;;5050430;28;19927;-79
2023/02/27 00:22:07;;;;;;;;;;;0.30;99.90;;;;;;5051632;28;19956;-79
2023/02/27 00:24:33;;;;;;;;;;;0.30;99.90;;;;;;5050319;28;20423;-78
2023/02/27 00:26:58;;;;;;;;;;;0.30;99.90;;;;;;5041234;28;19928;-81
2023/02/27 00:29:24;;;;;;;;;;;0.60;99.90;;;;;;5033743;28;19920;-78
2023/02/27 00:31:49;;;;;;;;;;;0.40;99.90;;;;;;5042476;28;19963;-80
2023/02/27 00:34:15;;;;;;;;;;;0.10;99.90;;;;;;5050340;28;19925;-79
2023/02/27 00:36:41;;;;;;;;;;;0.30;99.90;;;;;;5048638;28;19989;-79
2023/02/27 00:39:06;;;;;;;;;;;0.10;99.90;;;;;;5029984;28;20271;-80
2023/02/27 00:41:32;;;;;;;;;;;0.00;99.90;;;;;;5030183;28;19917;-80
2023/02/27 00:43:57;;;;;;;;;;;0.00;99.90;;;;;;5029537;28;19917;-79
2023/02/27 00:46:23;;;;;;;;;;;-0.10;99.90;;;;;;5039321;28;19975;-81
2023/02/27 00:48:49;;;;;;;;;;;-0.20;99.90;;;;;;5050298;28;19920;-81
2023/02/27 00:51:14;;;;;;;;;;;0.00;99.90;;;;;;5049948;28;19921;-81
2023/02/27 00:53:40;;;;;;;;;;;-0.20;99.90;;;;;;5049837;28;19931;-79
2023/02/27 00:56:06;;;;;;;;;;;-0.40;99.90;;;;;;5050017;28;19921;-80
2023/02/27 00:58:31;;;;;;;;;;;-0.60;99.90;;;;;;5050438;28;19924;-80
2023/02/27 01:01:00;;;;;;;;;;;-0.20;99.90;;;;;;5049455;28;19916;-79
2023/02/27 01:03:26;;;;;;;;;;;-0.70;99.90;;;;;;5049818;28;19921;-79
2023/02/27 01:05:51;;;;;;;;;;;-0.40;99.90;;;;;;5032804;28;19947;-80
2023/02/27 01:08:17;;;;;;;;;;;-0.60;99.90;;;;;;5049089;28;19921;-80
2023/02/27 01:10:42;;;;;;;;;;;-0.50;99.90;;;;;;5050489;28;19983;-79
2023/02/27 01:13:08;;;;;;;;;;;-0.50;99.90;;;;;;5049383;28;19970;-79
2023/02/27 01:15:34;;;;;;;;;;;-0.50;99.90;;;;;;5049596;28;19943;-78
2023/02/27 01:17:59;;;;;;;;;;;-0.40;99.90;;;;;;5050212;28;20468;-80
2023/02/27 01:20:25;;;;;;;;;;;0.00;99.90;;;;;;5048334;28;20385;-79
2023/02/27 01:22:51;;;;;;;;;;;-0.50;99.90;;;;;;5052591;28;19921;-81
2023/02/27 01:25:16;;;;;;;;;;;-0.50;99.90;;;;;;5050160;28;19928;-81
2023/02/27 01:27:42;;;;;;;;;;;-0.50;99.90;;;;;;5049128;28;20377;-80
2023/02/27 01:30:10;;;;;;;;;;;-0.60;99.90;;;;;;5031664;28;19928;-80
2023/02/27 01:32:35;;;;;;;;;;;-0.60;99.90;;;;;;5049782;28;19920;-78
2023/02/27 01:35:01;;;;;;;;;;;-0.60;99.90;;;;;;5049405;28;19929;-81
2023/02/27 01:37:27;;;;;;;;;;;-0.50;99.90;;;;;;5049899;28;19921;-79
2023/02/27 01:39:52;;;;;;;;;;;-0.10;99.90;;;;;;5050661;28;19921;-79
2023/02/27 01:42:22;;;;;;;;;;;-0.40;99.90;;;;;;5050336;28;19927;-79
2023/02/27 01:45:17;;;;;;;;;;;-0.80;99.90;;;;;;5049398;28;19921;-79
2023/02/27 01:47:46;;;;;;;;;;;-0.70;99.90;;;;;;5037901;28;20627;-81
2023/02/27 01:50:12;;;;;;;;;;;-0.30;99.90;;;;;;5047253;28;19924;-80
2023/02/27 01:52:39;;;;;;;;;;;-0.40;99.90;;;;;;5050407;28;19925;-79
2023/02/27 01:55:07;;;;;;;;;;;-0.40;99.90;;;;;;5049506;28;20011;-79
2023/02/27 01:57:33;;;;;;;;;;;-0.50;99.90;;;;;;5036927;28;19921;-79
2023/02/27 01:59:59;;;;;;;;;;;-0.30;99.90;;;;;;5053702;28;20278;-79
2023/02/27 02:02:28;;;;;;;;;;;-0.30;99.90;;;;;;5049109;28;19917;-79
2023/02/27 02:04:55;;;;;;;;;;;-0.50;99.90;;;;;;5034736;28;19921;-80
2023/02/27 02:07:20;;;;;;;;;;;-0.30;99.90;;;;;;5056452;28;20422;-80
2023/02/27 02:09:48;;;;;;;;;;;-0.40;99.90;;;;;;5053211;28;20011;-79
2023/02/27 02:12:15;;;;;;;;;;;-0.60;99.90;;;;;;5070107;28;20339;-79
2023/02/27 02:14:40;;;;;;;;;;;-0.50;99.90;;;;;;5052877;28;19932;-81
2023/02/27 02:17:14;;;;;;;;;;;-0.30;99.90;;;;;;5054256;28;19921;-79
2023/02/27 02:19:46;;;;;;;;;;;-0.60;99.90;;;;;;5052568;28;19917;-80
2023/02/27 02:22:24;;;;;;;;;;;-0.50;99.90;;;;;;5051346;28;20289;-81
2023/02/27 02:25:08;;;;;;;;;;;-0.60;99.90;;;;;;5052373;28;19959;-81
2023/02/27 02:27:34;;;;;;;;;;;-0.40;99.90;;;;;;5052743;28;19928;-79
2023/02/27 02:30:18;;;;;;;;;;;-0.20;99.90;;;;;;5051961;28;19921;-81
2023/02/27 02:32:54;;;;;;;;;;;-0.30;99.90;;;;;;5048562;28;19927;-78
2023/02/27 02:35:28;;;;;;;;;;;-0.20;99.90;;;;;;5035792;28;19928;-80
2023/02/27 02:38:13;;;;;;;;;;;-0.20;99.90;;;;;;5052420;28;19921;-78
2023/02/27 02:40:42;;;;;;;;;;;-0.40;99.90;;;;;;5053967;28;19925;-79
2023/02/27 02:43:13;;;;;;;;;;;-0.20;99.90;;;;;;5051324;28;19960;-79
2023/02/27 02:45:58;;;;;;;;;;;-0.40;99.90;;;;;;5052552;28;20525;-81
2023/02/27 02:48:26;;;;;;;;;;;-0.30;99.90;;;;;;5032493;28;19927;-81
2023/02/27 02:51:11;;;;;;;;;;;-0.20;99.90;;;;;;5032030;28;19921;-80
2023/02/27 02:53:55;;;;;;;;;;;-0.20;99.90;;;;;;5042589;28;19970;-80
2023/02/27 02:56:27;;;;;;;;;;;-0.10;99.90;;;;;;5034528;28;19931;-78
2023/02/27 02:58:59;;;;;;;;;;;-0.10;99.90;;;;;;5052039;28;20278;-80
2023/02/27 03:01:34;;;;;;;;;;;-0.20;99.90;;;;;;5052149;28;19971;-81
2023/02/27 03:04:08;;;;;;;;;;;-0.30;99.90;;;;;;5051478;28;20004;-80
2023/02/27 03:06:36;;;;;;;;;;;-0.30;99.90;;;;;;5085399;28;19920;-79
2023/02/27 03:09:06;;;;;;;;;;;-0.20;99.90;;;;;;5050416;28;20031;-81
2023/02/27 03:11:34;;;;;;;;;;;-0.40;99.90;;;;;;5061701;28;19920;-79
2023/02/27 03:14:09;;;;;;;;;;;-0.50;99.90;;;;;;5071281;28;19924;-79
2023/02/27 03:16:39;;;;;;;;;;;-0.70;99.90;;;;;;5071801;28;19928;-79
2023/02/27 03:19:21;;;;;;;;;;;-0.70;99.90;;;;;;5068322;28;20039;-79
2023/02/27 03:22:07;;;;;;;;;;;-1.00;99.90;;;;;;5033569;28;19917;-79
2023/02/27 03:24:33;;;;;;;;;;;-1.10;99.90;;;;;;5051806;28;19917;-79
2023/02/27 03:27:01;;;;;;;;;;;-1.10;99.90;;;;;;5051120;28;20011;-79
2023/02/27 03:29:36;;;;;;;;;;;-1.00;99.90;;;;;;5051580;28;19959;-80
2023/02/27 03:32:06;;;;;;;;;;;-1.20;99.90;;;;;;5050520;28;19924;-79
2023/02/27 03:34:33;;;;;;;;;;;-1.60;99.90;;;;;;5050597;28;19924;-81
2023/02/27 03:37:17;;;;;;;;;;;-0.90;99.90;;;;;;5052312;28;19943;-80
2023/02/27 03:39:51;;;;;;;;;;;-1.50;99.90;;;;;;5051202;28;20738;-80
2023/02/27 03:42:23;;;;;;;;;;;-1.60;99.90;;;;;;5052496;28;20293;-80
2023/02/27 03:45:09;;;;;;;;;;;-1.60;99.90;;;;;;5050930;28;19920;-79
2023/02/27 03:47:35;;;;;;;;;;;-1.50;99.90;;;;;;5057095;28;19966;-83
2023/02/27 03:50:01;;;;;;;;;;;-1.00;99.90;;;;;;5071259;28;19924;-81
2023/02/27 03:52:27;;;;;;;;;;;-1.40;99.90;;;;;;5071941;28;19920;-82
2023/02/27 03:54:57;;;;;;;;;;;-1.80;99.90;;;;;;5052479;28;19924;-79
2023/02/27 03:57:23;;;;;;;;;;;-1.60;99.90;;;;;;5051752;28;19924;-81
2023/02/27 03:59:48;;;;;;;;;;;-1.60;99.90;;;;;;5056759;28;19920;-80
2023/02/27 04:02:14;;;;;;;;;;;-1.80;99.90;;;;;;5052405;28;20036;-81
2023/02/27 04:04:40;;;;;;;;;;;-1.80;99.90;;;;;;5051212;28;19931;-80
2023/02/27 04:07:21;;;;;;;;;;;-1.80;99.90;;;;;;5034075;28;19928;-81
2023/02/27 04:09:50;;;;;;;;;;;-1.80;99.90;;;;;;5050424;28;19935;-81
2023/02/27 04:12:19;;;;;;;;;;;-2.10;99.90;;;;;;5067092;28;19916;-79
2023/02/27 04:14:45;;;;;;;;;;;-2.00;99.90;;;;;;5070750;28;19997;-78
2023/02/27 04:17:24;;;;;;;;;;;-1.90;99.90;;;;;;5039773;28;20345;-78
2023/02/27 04:19:57;;;;;;;;;;;-2.10;99.90;;;;;;5032849;28;19986;-80
2023/02/27 04:22:33;;;;;;;;;;;-1.80;99.90;;;;;;5051015;28;19999;-80
2023/02/27 04:25:07;;;;;;;;;;;-2.10;99.90;;;;;;5034072;28;19916;-79
2023/02/27 04:27:37;;;;;;;;;;;-1.90;99.90;;;;;;5051115;28;19925;-80
2023/02/27 04:30:17;;;;;;;;;;;-2.10;99.90;;;;;;5051125;28;19920;-80
2023/02/27 04:32:46;;;;;;;;;;;-2.10;99.90;;;;;;5050343;28;19920;-79
2023/02/27 04:35:32;;;;;;;;;;;-2.20;99.90;;;;;;5050337;28;20333;-80
2023/02/27 04:38:01;;;;;;;;;;;-1.90;99.90;;;;;;5049564;28;19923;-79
2023/02/27 04:40:30;;;;;;;;;;;-2.10;99.90;;;;;;5032522;28;19975;-78
2023/02/27 04:42:58;;;;;;;;;;;-2.10;99.90;;;;;;5050185;28;20370;-80
2023/02/27 04:45:25;;;;;;;;;;;-2.20;99.90;;;;;;5050013;28;20276;-79
2023/02/27 04:48:02;;;;;;;;;;;-1.80;99.90;;;;;;5050132;28;19916;-80
2023/02/27 04:50:40;;;;;;;;;;;-2.10;99.90;;;;;;5050199;28;19917;-80
2023/02/27 04:53:09;;;;;;;;;;;-2.10;99.90;;;;;;5049183;28;19917;-80
2023/02/27 04:55:37;;;;;;;;;;;-2.40;99.90;;;;;;5033265;28;20047;-79
2023/02/27 04:58:06;;;;;;;;;;;-2.10;99.90;;;;;;5049312;28;19954;-81
2023/02/27 05:00:33;;;;;;;;;;;-2.30;99.90;;;;;;5051381;28;19978;-80
2023/02/27 05:03:05;;;;;;;;;;;-2.40;99.90;;;;;;5033601;28;19956;-80
2023/02/27 05:05:33;;;;;;;;;;;-2.30;99.90;;;;;;5049716;28;19924;-79
2023/02/27 05:08:02;;;;;;;;;;;-2.20;99.90;;;;;;5051123;28;19923;-78
2023/02/27 05:10:45;;;;;;;;;;;-2.10;99.90;;;;;;5057051;28;19921;-79
2023/02/27 05:13:18;;;;;;;;;;;-2.30;99.90;;;;;;5070290;28;19916;-80
2023/02/27 05:16:10;;;;;;;;;;;-2.30;99.90;;;;;;5053147;28;19928;-78
2023/02/27 05:18:35;;;;;;;;;;;-2.20;99.90;;;;;;5056481;28;20003;-79
2023/02/27 05:21:07;;;;;;;;;;;-2.40;99.90;;;;;;5033054;28;20352;-80
2023/02/27 05:23:41;;;;;;;;;;;-2.40;99.90;;;;;;5049837;28;20315;-79
2023/02/27 05:26:06;;;;;;;;;;;-2.50;99.90;;;;;;5045198;28;19976;-79
2023/02/27 05:28:34;;;;;;;;;;;-2.40;99.90;;;;;;5043805;28;19924;-81
2023/02/27 05:31:14;;;;;;;;;;;-2.30;99.90;;;;;;5049197;28;19920;-78
2023/02/27 05:34:01;;;;;;;;;;;-2.70;99.90;;;;;;5049583;28;19936;-80
2023/02/27 05:36:32;;;;;;;;;;;-2.70;99.90;;;;;;5047832;28;19932;-81
2023/02/27 05:38:59;;;;;;;;;;;-2.60;99.90;;;;;;5049462;28;20632;-79
2023/02/27 05:41:28;;;;;;;;;;;-2.40;99.90;;;;;;5049203;28;19928;-79
2023/02/27 05:44:20;;;;;;;;;;;-2.50;99.90;;;;;;5049117;28;19955;-77
2023/02/27 05:46:57;;;;;;;;;;;-2.40;99.90;;;;;;5049562;28;19917;-81
2023/02/27 05:49:34;;;;;;;;;;;-2.50;99.90;;;;;;5050257;28;19927;-77
2023/02/27 05:52:01;;;;;;;;;;;-2.50;99.90;;;;;;5049205;28;19921;-78
2023/02/27 05:54:46;;;;;;;;;;;-2.40;99.90;;;;;;5082828;28;19994;-80
2023/02/27 05:57:16;;;;;;;;;;;-2.30;99.90;;;;;;5067021;28;19921;-81
2023/02/27 05:59:46;;;;;;;;;;;-1.80;99.90;;;;;;5082756;28;19925;-79
2023/02/27 06:02:11;;;;;;;;;;;-2.30;99.90;;;;;;5049710;28;20003;-79
2023/02/27 06:04:37;;;;;;;;;;;-2.20;99.90;;;;;;5049632;28;20342;-80
2023/02/27 06:07:06;;;;;;;;;;;-2.40;99.90;;;;;;5049358;28;19946;-80
2023/02/27 06:09:32;;;;;;;;;;;-2.20;99.90;;;;;;5049223;28;19921;-79
2023/02/27 06:11:58;;;;;;;;;;;-2.30;99.90;;;;;;5063411;28;19927;-80
2023/02/27 06:14:24;;;;;;;;;;;-2.10;99.90;;;;;;5058988;28;20329;-79
2023/02/27 06:16:49;;;;;;;;;;;-2.50;99.90;;;;;;5033020;28;19917;-80
2023/02/27 06:19:15;;;;;;;;;;;-2.70;99.90;;;;;;5049349;28;19921;-78
2023/02/27 06:21:41;;;;;;;;;;;-2.60;99.90;;;;;;5050726;28;20007;-79
2023/02/27 06:24:06;;;;;;;;;;;-2.20;99.90;;;;;;5049057;28;19916;-80
2023/02/27 06:26:32;;;;;;;;;;;-2.50;99.90;;;;;;5048454;28;20281;-79
2023/02/27 06:28:58;;;;;;;;;;;-2.30;99.90;;;;;;5049137;28;19921;-78
2023/02/27 06:31:24;;;;;;;;;;;-2.60;99.90;;;;;;5049194;28;19927;-80
2023/02/27 06:33:50;;;;;;;;;;;-2.40;99.90;;;;;;5049520;28;19917;-80
2023/02/27 06:36:15;;;;;;;;;;;-2.60;99.90;;;;;;5049934;28;20335;-80
2023/02/27 06:38:41;;;;;;;;;;;-2.40;99.90;;;;;;5048711;28;19970;-78
2023/02/27 06:41:06;;;;;;;;;;;-2.60;99.90;;;;;;5050168;28;19920;-80
2023/02/27 06:43:33;;;;;;;;;;;-2.40;99.90;;;;;;5054383;28;19996;-79
2023/02/27 06:45:59;;;;;;;;;;;-2.20;99.90;;;;;;5020177;28;19921;-82
2023/02/27 06:48:25;;;;;;;;;;;-2.30;99.90;;;;;;5052619;28;19921;-79
2023/02/27 06:50:55;;;;;;;;;;;-1.80;99.90;;;;;;5052522;28;19924;-80
2023/02/27 06:53:21;;;;;;;;;;;-2.30;99.90;;;;;;5032780;28;19921;-80
2023/02/27 06:55:46;;;;;;;;;;;-2.10;99.90;;;;;;5032684;28;20461;-79
2023/02/27 06:58:12;;;;;;;;;;;-1.80;99.90;;;;;;5016084;28;20003;-80
2023/02/27 07:00:37;;;;;;;;;;;-1.80;99.90;;;;;;5032848;28;19925;-79
2023/02/27 07:03:03;;;;;;;;;;;-1.60;99.90;;;;;;5032749;28;19917;-79
2023/02/27 07:05:30;;;;;;;;;;;-1.60;99.90;;;;;;5050592;28;20338;-80
2023/02/27 07:07:55;;;;;;;;;;;-1.60;99.90;;;;;;5036060;28;19999;-79
2023/02/27 07:10:21;;;;;;;;;;;-1.40;99.90;;;;;;5051806;28;20012;-80
2023/02/27 07:12:46;;;;;;;;;;;-1.20;99.90;;;;;;5072903;28;19956;-81
2023/02/27 07:15:12;;;;;;;;;;;-1.10;99.90;;;;;;5072279;28;20374;-80
2023/02/27 07:17:38;;;;;;;;;;;-0.50;99.90;;;;;;5046981;28;20071;-81
2023/02/27 07:20:07;;;;;;;;;;;-0.70;99.90;;;;;;5045310;28;19935;-79
2023/02/27 07:22:32;;;;;;;;;;;-1.00;99.90;;;;;;5054641;28;19921;-81
2023/02/27 07:24:58;;;;;;;;;;;-0.70;99.90;;;;;;5053326;28;19927;-81
2023/02/27 07:27:24;;;;;;;;;;;-0.50;99.90;;;;;;5034831;28;19921;-79
2023/02/27 07:29:49;;;;;;;;;;;-0.20;99.90;;;;;;5052332;28;19924;-81
2023/02/27 07:32:15;;;;;;;;;;;-0.50;99.90;;;;;;5043823;28;19974;-79
2023/02/27 07:34:41;;;;;;;;;;;-0.60;99.90;;;;;;5036073;28;19925;-81
2023/02/27 07:37:06;;;;;;;;;;;-0.30;99.90;;;;;;5054052;28;20393;-82
2023/02/27 07:39:33;;;;;;;;;;;-0.30;99.90;;;;;;5030840;28;19916;-80
2023/02/27 07:41:59;;;;;;;;;;;-0.10;99.90;;;;;;5052281;28;20030;-79
2023/02/27 07:44:24;;;;;;;;;;;-0.10;99.90;;;;;;5034918;28;19967;-82
2023/02/27 07:46:51;;;;;;;;;;;-0.30;99.90;;;;;;5058801;28;20393;-81
2023/02/27 07:49:16;;;;;;;;;;;0.00;99.90;;;;;;5051425;28;20374;-81
2023/02/27 07:51:43;;;;;;;;;;;0.20;99.90;;;;;;5052342;28;19917;-79
2023/02/27 07:54:09;;;;;;;;;;;-0.10;99.90;;;;;;5053577;28;20282;-83
2023/02/27 07:56:35;;;;;;;;;;;-0.10;99.90;;;;;;5051774;28;19917;-82
2023/02/27 07:59:01;;;;;;;;;;;0.40;99.90;;;;;;5051478;28;19921;-81
2023/02/27 08:01:27;;;;;;;;;;;0.30;99.90;;;;;;5051403;28;19933;-82
2023/02/27 08:03:57;;;;;;;;;;;0.50;99.90;;;;;;5053212;28;19921;-81
2023/02/27 08:06:24;;;;;;;;;;;0.20;99.90;;;;;;5051044;28;19923;-80
2023/02/27 08:08:56;;;;;;;;;;;0.50;99.90;;;;;;5034476;28;19995;-80
2023/02/27 08:11:27;;;;;;;;;;;0.90;99.90;;;;;;5060450;28;19927;-79
2023/02/27 08:13:52;;;;;;;;;;;0.90;99.90;;;;;;5072979;28;19916;-80
2023/02/27 08:16:18;;;;;;;;;;;1.20;99.90;;;;;;5071091;28;19916;-80
2023/02/27 08:18:45;;;;;;;;;;;1.20;99.90;;;;;;5070781;28;19970;-80
2023/02/27 08:21:10;;;;;;;;;;;1.50;99.90;;;;;;5032575;28;19920;-82
2023/02/27 08:23:36;;;;;;;;;;;1.10;99.90;;;;;;5050950;28;19920;-80
2023/02/27 08:26:02;;;;;;;;;;;1.40;99.90;;;;;;5051613;28;19928;-80
2023/02/27 08:28:28;;;;;;;;;;;2.00;99.90;;;;;;5050954;28;19993;-80
2023/02/27 08:30:55;;;;;;;;;;;2.00;99.90;;;;;;5049193;28;19920;-82
2023/02/27 08:33:24;;;;;;;;;;;1.40;99.90;;;;;;5051015;28;19931;-79
2023/02/27 08:35:49;;;;;;;;;;;1.80;99.90;;;;;;5051419;28;20281;-80
2023/02/27 08:38:21;;;;;;;;;;;2.30;99.90;;;;;;5034872;28;19923;-80
2023/02/27 08:40:48;;;;;;;;;;;2.10;99.90;;;;;;5051414;28;20217;-82
2023/02/27 08:43:14;;;;;;;;;;;2.30;99.90;;;;;;5084135;28;19964;-82
2023/02/27 08:45:39;;;;;;;;;;;2.30;99.90;;;;;;5034106;28;19970;-81
2023/02/27 08:48:07;;;;;;;;;;;2.60;99.90;;;;;;5051088;28;19921;-81
2023/02/27 08:50:34;;;;;;;;;;;2.30;99.90;;;;;;5050642;28;19920;-81
2023/02/27 08:52:59;;;;;;;;;;;2.30;99.90;;;;;;5051174;28;19916;-81
2023/02/27 08:55:28;;;;;;;;;;;3.50;99.90;;;;;;5050824;28;20120;-79
2023/02/27 08:58:02;;;;;;;;;;;3.30;99.90;;;;;;5050813;28;19918;-82
2023/02/27 09:00:29;;;;;;;;;;;3.10;99.90;;;;;;5050162;28;19921;-79
2023/02/27 09:02:55;;;;;;;;;;;3.30;99.90;;;;;;5038745;28;20318;-81
2023/02/27 09:05:21;;;;;;;;;;;3.50;99.90;;;;;;5029655;28;20009;-79
2023/02/27 09:07:47;;;;;;;;;;;3.50;99.90;;;;;;5041026;28;20358;-80
2023/02/27 09:10:13;;;;;;;;;;;3.60;99.90;;;;;;5050430;28;19966;-82
2023/02/27 09:12:44;;;;;;;;;;;3.80;99.90;;;;;;5038379;28;19920;-82
2023/02/27 09:15:10;;;;;;;;;;;4.00;99.90;;;;;;5033696;28;20294;-82
2023/02/27 09:17:36;;;;;;;;;;;3.60;99.90;;;;;;5033201;28;19932;-81
2023/02/27 09:20:03;;;;;;;;;;;4.10;99.90;;;;;;5032978;28;20025;-82
2023/02/27 09:22:29;;;;;;;;;;;3.90;99.90;;;;;;5049514;28;19927;-82
2023/02/27 09:24:55;;;;;;;;;;;4.60;99.90;;;;;;5037473;28;19917;-82
2023/02/27 09:27:24;;;;;;;;;;;4.50;99.90;;;;;;5050749;28;20683;-82
2023/02/27 09:29:54;;;;;;;;;;;4.50;99.90;;;;;;5049537;28;19921;-80
2023/02/27 09:32:22;;;;;;;;;;;4.20;99.90;;;;;;5049707;28;19924;-82
2023/02/27 09:34:47;;;;;;;;;;;4.30;99.90;;;;;;5048555;28;19921;-82
2023/02/27 09:37:15;;;;;;;;;;;4.90;99.90;;;;;;5049792;28;19916;-82
2023/02/27 09:39:40;;;;;;;;;;;5.00;99.90;;;;;;5065853;28;19920;-81
2023/02/27 09:42:15;;;;;;;;;;;4.70;99.90;;;;;;5049850;28;20446;-82
2023/02/27 09:44:58;;;;;;;;;;;5.10;99.90;;;;;;5048721;28;19924;-82
2023/02/27 09:47:25;;;;;;;;;;;4.90;99.90;;;;;;5050444;28;19924;-82
2023/02/27 09:49:54;;;;;;;;;;;5.20;99.90;;;;;;5049202;28;19920;-82
2023/02/27 09:52:20;;;;;;;;;;;5.20;99.90;;;;;;5032641;28;20365;-81
2023/02/27 09:54:49;;;;;;;;;;;5.40;99.90;;;;;;5039903;28;19925;-82
2023/02/27 09:57:32;;;;;;;;;;;5.50;99.90;;;;;;5050957;28;19920;-81
2023/02/27 10:00:17;;;;;;;;;;;5.60;99.90;;;;;;5049571;28;20408;-83
2023/02/27 10:02:45;;;;;;;;;;;5.40;99.90;;;;;;5050610;28;19927;-81
2023/02/27 10:05:25;;;;;;;;;;;5.40;99.90;;;;;;5048598;28;19920;-83
2023/02/27 10:07:53;;;;;;;;;;;5.50;99.90;;;;;;5048975;28;20437;-83
2023/02/27 10:10:19;;;;;;;;;;;5.50;99.90;;;;;;5049741;28;19964;-83
2023/02/27 10:12:48;;;;;;;;;;;5.60;99.90;;;;;;5052429;28;20521;-81
2023/02/27 10:15:13;;;;;;;;;;;5.80;99.90;;;;;;5069457;28;20073;-79
2023/02/27 10:17:41;;;;;;;;;;;5.50;99.90;;;;;;5045545;28;20039;-82
2023/02/27 10:20:28;;;;;;;;;;;5.80;99.90;;;;;;5045197;28;19974;-81
2023/02/27 10:22:55;;;;;;;;;;;5.60;99.90;;;;;;5052642;28;19917;-82
2023/02/27 10:25:21;;;;;;;;;;;6.30;99.90;;;;;;5053471;28;20012;-81
2023/02/27 10:27:48;;;;;;;;;;;6.30;99.90;;;;;;5051738;28;20057;-79
2023/02/27 10:30:20;;;;;;;;;;;6.10;99.90;;;;;;5054512;28;20289;-81
2023/02/27 10:32:47;;;;;;;;;;;5.70;99.90;;;;;;5052816;28;19921;-82
2023/02/27 10:35:24;;;;;;;;;;;5.60;99.90;;;;;;5052841;28;20382;-81
2023/02/27 10:37:52;;;;;;;;;;;5.50;99.90;;;;;;5052104;28;19920;-83
2023/02/27 10:40:19;;;;;;;;;;;5.40;99.90;;;;;;5053485;28;20706;-82
2023/02/27 10:42:45;;;;;;;;;;;5.60;99.90;;;;;;5052680;28;19923;-80
2023/02/27 10:45:14;;;;;;;;;;;5.90;99.90;;;;;;5052894;28;20281;-81
2023/02/27 10:47:40;;;;;;;;;;;5.60;99.90;;;;;;5034421;28;20369;-80
2023/02/27 10:50:25;;;;;;;;;;;6.00;99.90;;;;;;5034072;28;19917;-81
2023/02/27 10:52:52;;;;;;;;;;;5.70;99.90;;;;;;5036494;28;19916;-81
2023/02/27 10:55:21;;;;;;;;;;;6.10;99.90;;;;;;5035830;28;20397;-81
2023/02/27 10:57:47;;;;;;;;;;;6.20;99.90;;;;;;5038214;28;19920;-81
2023/02/27 11:00:22;;;;;;;;;;;6.30;99.90;;;;;;5052590;28;19939;-82
2023/02/27 11:02:50;;;;;;;;;;;5.90;99.90;;;;;;5053692;28;20011;-82
2023/02/27 11:05:30;;;;;;;;;;;6.10;99.90;;;;;;5053760;28;20409;-81
2023/02/27 11:08:09;;;;;;;;;;;5.80;99.90;;;;;;5032757;28;20009;-80
2023/02/27 11:10:34;;;;;;;;;;;6.00;99.90;;;;;;5037092;28;20517;-81
2023/02/27 11:13:04;;;;;;;;;;;6.50;99.90;;;;;;5057798;28;20016;-82
2023/02/27 11:15:31;;;;;;;;;;;6.20;99.90;;;;;;5074757;28;19959;-79
2023/02/27 11:18:15;;;;;;;;;;;6.50;99.90;;;;;;5072722;28;19927;-82
2023/02/27 11:20:42;;;;;;;;;;;6.30;99.90;;;;;;5054608;28;20515;-82
2023/02/27 11:23:16;;;;;;;;;;;6.90;99.90;;;;;;5052122;28;19969;-83
2023/02/27 11:25:42;;;;;;;;;;;6.60;99.90;;;;;;5051542;28;19925;-80
2023/02/27 11:28:20;;;;;;;;;;;6.50;99.90;;;;;;5050988;28;19932;-80
2023/02/27 11:31:00;;;;;;;;;;;6.70;99.90;;;;;;5054982;28;19977;-80
2023/02/27 11:33:35;;;;;;;;;;;6.70;99.90;;;;;;5053605;28;19935;-80
2023/02/27 11:36:01;;;;;;;;;;;6.80;99.90;;;;;;5035221;28;19924;-82
2023/02/27 11:38:27;;;;;;;;;;;6.90;99.90;;;;;;5051951;28;19921;-83
2023/02/27 11:40:58;;;;;;;;;;;7.00;99.90;;;;;;5034726;28;19927;-85
2023/02/27 11:43:27;;;;;;;;;;;6.90;99.90;;;;;;5051964;28;19962;-82
2023/02/27 11:45:58;;;;;;;;;;;6.90;99.90;;;;;;5051596;28;19924;-82
2023/02/27 11:48:26;;;;;;;;;;;6.90;99.90;;;;;;5051623;28;19920;-81
2023/02/27 11:51:01;;;;;;;;;;;6.90;99.90;;;;;;5046605;28;19932;-79
2023/02/27 11:54:00;;;;;;;;;;;6.80;99.90;;;;;;5040777;28;20378;-81
2023/02/27 11:56:46;;;;;;;;;;;6.80;99.90;;;;;;5040156;28;19921;-82
2023/02/27 11:59:20;;;;;;;;;;;6.90;99.90;;;;;;5034770;28;19928;-79
2023/02/27 12:02:06;;;;;;;;;;;7.00;99.90;;;;;;5034168;28;19920;-84
2023/02/27 12:04:52;;;;;;;;;;;7.40;99.90;;;;;;5067296;28;19940;-82
2023/02/27 12:07:20;;;;;;;;;;;7.10;99.90;;;;;;5067365;28;20433;-82
2023/02/27 12:09:58;;;;;;;;;;;7.00;99.90;;;;;;5052314;28;19964;-80
2023/02/27 12:12:44;;;;;;;;;;;7.10;99.90;;;;;;5043173;28;19917;-82
2023/02/27 12:15:16;;;;;;;;;;;7.30;99.90;;;;;;5021049;28;19952;-80
2023/02/27 12:17:56;;;;;;;;;;;7.50;99.90;;;;;;5031689;28;20337;-81
2023/02/27 12:20:27;;;;;;;;;;;7.40;99.90;;;;;;5033374;28;19921;-83
2023/02/27 12:22:54;;;;;;;;;;;7.30;99.90;;;;;;5034662;28;19968;-83
2023/02/27 12:25:35;;;;;;;;;;;7.30;99.90;;;;;;5040353;28;19968;-83
2023/02/27 12:28:00;;;;;;;;;;;7.40;99.90;;;;;;5051125;28;20393;-83
2023/02/27 12:30:28;;;;;;;;;;;7.90;99.90;;;;;;5052846;28;20057;-81
2023/02/27 12:33:00;;;;;;;;;;;7.80;99.90;;;;;;5052678;28;19924;-82
2023/02/27 12:35:31;;;;;;;;;;;7.80;99.90;;;;;;5044810;28;19921;-82
2023/02/27 12:37:57;;;;;;;;;;;7.60;99.90;;;;;;5042358;28;19927;-82
2023/02/27 12:40:35;;;;;;;;;;;7.70;99.90;;;;;;5033741;28;19922;-82
2023/02/27 12:43:19;;;;;;;;;;;7.80;99.90;;;;;;5050889;28;20029;-83
2023/02/27 12:45:45;;;;;;;;;;;7.70;99.90;;;;;;5034001;28;19920;-80
2023/02/27 12:48:10;;;;;;;;;;;7.80;99.90;;;;;;5049820;28;19970;-81
2023/02/27 12:50:55;;;;;;;;;;;8.10;99.90;;;;;;5053109;28;19921;-82
2023/02/27 12:53:38;;;;;;;;;;;7.80;99.90;;;;;;5050858;28;19920;-80
2023/02/27 12:56:15;;;;;;;;;;;7.70;99.90;;;;;;5050488;28;19959;-82
2023/02/27 12:58:59;;;;;;;;;;;7.60;99.90;;;;;;5048713;28;20262;-82
2023/02/27 13:01:37;;;;;;;;;;;7.40;99.90;;;;;;5030722;28;19921;-84
2023/02/27 13:04:11;;;;;;;;;;;7.20;99.90;;;;;;5030577;28;19917;-83
2023/02/27 13:06:52;;;;;;;;;;;7.10;99.90;;;;;;5032041;28;19917;-82
2023/02/27 13:09:31;;;;;;;;;;;6.90;99.90;;;;;;5033532;28;19920;-85
2023/02/27 13:12:07;;;;;;;;;;;6.90;99.90;;;;;;5064581;28;19920;-83
2023/02/27 13:14:33;;;;;;;;;;;6.80;99.90;;;;;;5072095;28;19920;-81
2023/02/27 13:17:03;;;;;;;;;;;7.30;99.90;;;;;;5069938;28;19923;-83
2023/02/27 13:19:29;;;;;;;;;;;7.00;99.90;;;;;;5063721;28;19921;-81
2023/02/27 13:22:01;;;;;;;;;;;7.40;99.90;;;;;;5050340;28;20266;-80
2023/02/27 13:24:28;;;;;;;;;;;7.20;99.90;;;;;;5049639;28;20270;-81
2023/02/27 13:27:13;;;;;;;;;;;7.10;99.90;;;;;;5032827;28;20693;-83
2023/02/27 13:29:40;;;;;;;;;;;7.40;99.90;;;;;;5049715;28;19932;-83
2023/02/27 13:32:14;;;;;;;;;;;7.70;99.90;;;;;;5045686;28;19916;-83
2023/02/27 13:34:42;;;;;;;;;;;7.40;99.90;;;;;;5050597;28;19924;-81
2023/02/27 13:37:08;;;;;;;;;;;7.60;99.90;;;;;;5051167;28;19939;-82
2023/02/27 13:39:38;;;;;;;;;;;7.30;99.90;;;;;;5050190;28;20011;-80
2023/02/27 13:42:24;;;;;;;;;;;7.30;99.90;;;;;;5049192;28;20336;-79
2023/02/27 13:44:50;;;;;;;;;;;7.50;99.90;;;;;;5066281;28;20380;-82
2023/02/27 13:47:29;;;;;;;;;;;7.40;99.90;;;;;;5036548;28;19916;-79
2023/02/27 13:50:02;;;;;;;;;;;7.50;99.90;;;;;;5048718;28;20373;-80
2023/02/27 13:52:30;;;;;;;;;;;7.40;99.90;;;;;;5031804;28;19970;-82
2023/02/27 13:54:55;;;;;;;;;;;7.80;99.90;;;;;;5050535;28;20012;-82
2023/02/27 13:57:30;;;;;;;;;;;8.10;99.90;;;;;;5050930;28;20544;-80
2023/02/27 14:00:19;;;;;;;;;;;8.20;99.90;;;;;;5034700;28;19999;-83
2023/02/27 14:02:51;;;;;;;;;;;8.40;99.90;;;;;;5034629;28;20396;-81
2023/02/27 14:05:24;;;;;;;;;;;8.80;99.90;;;;;;5034056;28;19924;-81
2023/02/27 14:07:57;;;;;;;;;;;9.10;99.90;;;;;;5049131;28;20374;-81
2023/02/27 14:10:28;;;;;;;;;;;9.30;99.90;;;;;;5051871;28;19928;-80
2023/02/27 14:12:56;;;;;;;;;;;9.40;99.90;;;;;;5058788;28;19921;-82
2023/02/27 14:15:21;;;;;;;;;;;9.40;99.90;;;;;;5032710;28;19959;-81
2023/02/27 14:17:48;;;;;;;;;;;9.50;99.90;;;;;;5048958;28;20385;-83
2023/02/27 14:20:13;;;;;;;;;;;9.50;99.90;;;;;;5050497;28;20369;-81
2023/02/27 14:23:02;;;;;;;;;;;9.50;99.90;;;;;;5049537;28;20014;-82
2023/02/27 14:25:41;;;;;;;;;;;10.10;99.90;;;;;;5050942;28;19966;-80
2023/02/27 14:28:25;;;;;;;;;;;10.10;99.90;;;;;;5048478;28;19938;-81
2023/02/27 14:31:04;;;;;;;;;;;10.10;99.90;;;;;;5049667;28;19920;-80
2023/02/27 14:33:40;;;;;;;;;;;10.40;99.90;;;;;;5031516;28;19970;-80
2023/02/27 14:36:15;;;;;;;;;;;10.70;99.90;;;;;;5048527;28;20387;-82
2023/02/27 14:38:41;;;;;;;;;;;11.20;99.90;;;;;;5032575;28;20004;-81
2023/02/27 14:41:25;;;;;;;;;;;12.00;99.90;;;;;;5031937;28;20008;-82